Llantwit Fardre, United Kingdom
Current Conditions -  °F | °C
As of 3:50 AM on Friday 31 Oct 2014 (Local Time) from EGFF Reporting Station
Haze Haze  
Wind Chill: 59°   Ceiling: Unl
Heat Index: 59°   Visibility: 3mi
Dew Point: 57°   Wind: 10mph
Humidity: 94%   Direction: 170°S
Pressure: 29.97"   Gusts: NA
Location:  51.55°N, 3.33°W
Report Text: EGFF 310350Z AUTO 17009KT 5000 HZ NCD 15/14 Q1015
Loading
Personal Weather Stations






























Interactive Weather Map
Tropical Storm Tracking
New forecast layout! Learn more

10-Day Weather Forecast

Advertisements
Track Severe Weather on mobile